EGNM/LBA METAR and TAF weather

Enter ICAO airport designator
Station Type Date Time Source
EGNM METAR 2022/01/27 21:50 UTC NOAA

EGNM 272150Z 28015KT CAVOK 05/04 Q1031


Station Type Date Time Source
EGNM Decoded METAR 2022/01/27 21:50 UTC NOAA

Leeds And Bradford, United Kingdom (EGNM) 53-52N 001-39W
Jan 27, 2022 - 04:50 PM EST / 2022.01.27 2150 UTC
Wind: from the W (280 degrees) at 17 MPH (15 KT):0
Visibility: greater than 7 mile(s):0
Temperature: 41 F (5 C)
Dew Point: 39 F (4 C)
Relative Humidity: 93%
Pressure (altimeter): 30.45 in. Hg (1031 hPa)
ob: EGNM 272150Z 28015KT CAVOK 05/04 Q1031
cycle: 22

Station Type Date Time Source
EGNM TAF 2022/01/27 18:06 UTC NOAA

TAF TAF EGNM 271655Z 2718/2818 28010KT 9999 SCT035
BECMG 2800/2803 20005KT
BECMG 2806/2809 22015KT PROB30 2806/2809 8000 PROB30
TEMPO 2809/2818 8000 -RADZ BKN012
TEMPO 2811/2818 23020G30KT

Example: see airport list